createdAt,value
2022-11-03T00:02:13.545Z,101946.38
2022-11-03T00:05:38.128Z,101948.66
2022-11-03T00:08:44.602Z,101948.59
2022-11-03T00:11:51.990Z,101954.53
2022-11-03T00:14:57.326Z,101956.63
2022-11-03T00:18:02.908Z,101947.06
2022-11-03T00:21:11.069Z,101947.06
2022-11-03T00:24:16.599Z,101947.06
2022-11-03T00:27:21.926Z,101944.38
2022-11-03T00:30:27.872Z,101956.63
2022-11-03T00:33:34.124Z,101952.53
2022-11-03T00:36:42.252Z,101949.84
2022-11-03T00:39:47.493Z,101945.09
2022-11-03T00:42:52.910Z,101946.50
2022-11-03T00:45:59.324Z,101951.06
2022-11-03T00:49:05.448Z,101947.91
2022-11-03T00:52:11.039Z,101940.06
2022-11-03T00:55:16.698Z,101933.91
2022-11-03T00:58:22.749Z,101931.91
2022-11-03T01:01:38.232Z,101936.44
2022-11-03T01:05:06.560Z,101938.44
2022-11-03T01:08:11.809Z,101931.19
2022-11-03T01:11:39.372Z,101929.69
2022-11-03T01:14:51.706Z,101933.75
2022-11-03T01:17:58.654Z,101928.53
2022-11-03T01:21:04.123Z,101927.13
2022-11-03T01:24:09.675Z,101924.81
2022-11-03T01:27:17.666Z,101917.22
2022-11-03T01:30:23.380Z,101916.09
2022-11-03T01:33:28.601Z,101908.06
2022-11-03T01:36:34.049Z,101907.16
2022-11-03T01:39:39.215Z,101909.59
2022-11-03T01:42:44.441Z,101907.88
2022-11-03T01:46:19.520Z,101902.00
2022-11-03T01:49:51.429Z,101892.34
2022-11-03T01:52:59.162Z,101887.44
2022-11-03T01:56:05.540Z,101879.47
2022-11-03T01:59:11.790Z,101875.16
2022-11-03T02:02:17.062Z,101870.16
2022-11-03T02:05:26.340Z,101861.97
2022-11-03T02:08:53.732Z,101862.13
2022-11-03T02:12:08.658Z,101855.47
2022-11-03T02:15:19.029Z,101860.22
2022-11-03T02:18:29.271Z,101857.91
2022-11-03T02:21:49.416Z,101855.59
2022-11-03T02:25:20.030Z,101867.09
2022-11-03T02:28:28.284Z,101863.97
2022-11-03T02:31:43.555Z,101864.44
2022-11-03T02:34:57.166Z,101861.19
2022-11-03T02:38:06.753Z,101860.59
2022-11-03T02:41:13.662Z,101851.97
2022-11-03T02:44:21.023Z,101845.94
2022-11-03T02:47:30.763Z,101853.13
2022-11-03T02:50:36.419Z,101853.13
2022-11-03T02:54:28.575Z,101861.78
2022-11-03T02:57:39.114Z,101870.78
2022-11-03T03:00:53.952Z,101869.72
2022-11-03T03:04:05.633Z,101867.03
2022-11-03T03:07:20.093Z,101872.50
2022-11-03T03:10:29.379Z,101866.09
2022-11-03T03:13:35.051Z,101862.44
2022-11-03T03:16:59.122Z,101856.06
2022-11-03T03:20:14.439Z,101856.28
2022-11-03T03:23:24.197Z,101845.09
2022-11-03T03:26:42.793Z,101849.84
2022-11-03T03:29:53.994Z,101852.16
2022-11-03T03:33:01.825Z,101853.78
2022-11-03T03:36:13.835Z,101846.78
2022-11-03T03:39:22.634Z,101847.09
2022-11-03T03:42:29.835Z,101837.06
2022-11-03T03:45:37.231Z,101840.88
2022-11-03T03:48:43.503Z,101850.09
2022-11-03T03:51:50.668Z,101857.09
2022-11-03T03:54:57.043Z,101859.91
2022-11-03T03:58:04.572Z,101851.03
2022-11-03T04:01:13.007Z,101857.38
2022-11-03T04:04:19.241Z,101855.72
2022-11-03T04:07:43.968Z,101859.16
2022-11-03T04:11:08.304Z,101851.72
2022-11-03T04:14:32.134Z,101859.19
2022-11-03T04:18:02.496Z,101855.69
2022-11-03T04:21:30.392Z,101855.16
2022-11-03T04:24:35.757Z,101852.22
2022-11-03T04:27:44.906Z,101850.13
2022-11-03T04:30:53.379Z,101846.63
2022-11-03T04:34:05.033Z,101831.44
2022-11-03T04:37:14.364Z,101832.88
2022-11-03T04:40:19.883Z,101830.84
2022-11-03T04:43:37.392Z,101832.00
2022-11-03T04:46:44.709Z,101828.41
2022-11-03T04:49:50.257Z,101829.22
2022-11-03T04:52:58.807Z,101826.53
2022-11-03T04:56:15.819Z,101821.28
2022-11-03T04:59:21.436Z,101815.69
2022-11-03T05:02:27.267Z,101817.91
2022-11-03T05:05:33.083Z,101807.69
2022-11-03T05:08:38.855Z,101806.63
2022-11-03T05:11:48.155Z,101801.06
2022-11-03T05:14:58.033Z,101797.03
2022-11-03T05:18:31.857Z,101804.19
2022-11-03T05:21:37.527Z,101806.50
2022-11-03T05:24:44.550Z,101801.94
2022-11-03T05:27:49.921Z,101796.16
2022-11-03T05:30:56.153Z,101796.16
2022-11-03T05:34:07.624Z,101791.59
2022-11-03T05:37:32.820Z,101789.59
2022-11-03T05:40:38.236Z,101781.09
2022-11-03T05:43:43.898Z,101779.81
2022-11-03T05:46:49.589Z,101785.56
2022-11-03T05:50:01.260Z,101781.22
2022-11-03T05:53:20.297Z,101783.47
2022-11-03T05:56:26.425Z,101776.53
2022-11-03T05:59:31.941Z,101772.16
2022-11-03T06:02:43.694Z,101772.97
2022-11-03T06:05:49.342Z,101781.69
2022-11-03T06:08:58.273Z,101784.13
2022-11-03T06:12:07.457Z,101792.34
2022-11-03T06:15:28.119Z,101789.88
2022-11-03T06:18:36.859Z,101790.25
2022-11-03T06:21:44.782Z,101797.25
2022-11-03T06:24:51.572Z,101798.63
2022-11-03T06:28:02.420Z,101798.63
2022-11-03T06:31:28.029Z,101806.34
2022-11-03T06:34:57.884Z,101811.25
2022-11-03T06:38:02.961Z,101819.28
2022-11-03T06:41:21.051Z,101820.94
2022-11-03T06:44:29.069Z,101821.72
2022-11-03T06:47:34.665Z,101826.88
2022-11-03T06:50:44.603Z,101831.78
2022-11-03T06:53:52.606Z,101830.97
2022-11-03T06:56:58.228Z,101835.03
2022-11-03T07:00:33.468Z,101831.69
2022-11-03T07:03:41.487Z,101836.69
2022-11-03T07:06:53.588Z,101830.03
2022-11-03T07:09:59.437Z,101834.94
2022-11-03T07:13:20.399Z,101831.00
2022-11-03T07:16:41.640Z,101835.22
2022-11-03T07:19:46.822Z,101832.88
2022-11-03T07:22:53.024Z,101832.75
2022-11-03T07:26:02.537Z,101833.69
2022-11-03T07:29:15.107Z,101839.78
2022-11-03T07:32:24.555Z,101829.97
2022-11-03T07:36:08.331Z,101839.75
2022-11-03T07:39:03.807Z,101831.00
2022-11-03T07:42:23.003Z,101829.63
2022-11-03T07:45:37.389Z,101835.00
2022-11-03T07:48:49.652Z,101823.22
2022-11-03T07:52:00.408Z,101832.41
2022-11-03T07:55:11.553Z,101828.34
2022-11-03T07:58:28.665Z,101824.59
2022-11-03T08:01:42.414Z,101825.31
2022-11-03T08:04:48.003Z,101817.72
2022-11-03T08:07:53.201Z,101820.16
2022-11-03T08:10:59.268Z,101816.44
2022-11-03T08:14:04.729Z,101814.69
2022-11-03T08:17:10.321Z,101822.72
2022-11-03T08:20:16.305Z,101814.66
2022-11-03T08:23:26.373Z,101815.84
2022-11-03T08:26:32.249Z,101812.22
2022-11-03T08:29:37.533Z,101802.03
2022-11-03T08:32:42.956Z,101794.66
2022-11-03T08:35:47.892Z,101788.00
2022-11-03T08:38:53.762Z,101791.28
2022-11-03T08:41:59.025Z,101786.97
2022-11-03T08:45:04.994Z,101792.41
2022-11-03T08:48:10.281Z,101779.44
2022-11-03T08:51:16.456Z,101778.16
2022-11-03T08:54:21.772Z,101777.13
2022-11-03T08:57:27.305Z,101776.53
2022-11-03T09:00:35.919Z,101769.50
2022-11-03T09:03:43.949Z,101761.44
2022-11-03T09:06:49.365Z,101757.94
2022-11-03T09:13:20.040Z,101741.47
2022-11-03T09:16:25.099Z,101737.66
2022-11-03T09:19:30.279Z,101731.38
2022-11-03T09:22:35.808Z,101731.06
2022-11-03T09:25:41.389Z,101734.81
2022-11-03T09:28:46.711Z,101723.06
2022-11-03T09:31:52.379Z,101719.97
2022-11-03T09:34:57.437Z,101720.06
2022-11-03T09:38:02.699Z,101734.72
2022-11-03T09:41:18.720Z,101725.66
2022-11-03T09:44:36.738Z,101734.53
2022-11-03T09:47:45.707Z,101725.66
2022-11-03T09:50:54.562Z,101732.28
2022-11-03T09:54:04.870Z,101726.34
2022-11-03T09:57:13.280Z,101726.16
2022-11-03T10:00:23.879Z,101722.88
2022-11-03T10:03:30.459Z,101719.78
2022-11-03T10:06:35.647Z,101724.03
2022-11-03T10:09:48.395Z,101712.72
2022-11-03T10:12:56.282Z,101711.16
2022-11-03T10:16:05.628Z,101702.84
2022-11-03T10:19:14.539Z,101706.44
2022-11-03T10:22:21.438Z,101703.56
2022-11-03T10:25:43.900Z,101691.50
2022-11-03T10:29:01.416Z,101685.72
2022-11-03T10:32:31.484Z,101685.53
2022-11-03T10:35:37.079Z,101679.59
2022-11-03T10:38:46.298Z,101683.34
2022-11-03T10:41:59.637Z,101670.06
2022-11-03T10:45:14.816Z,101654.84
2022-11-03T10:48:20.337Z,101658.28
2022-11-03T10:51:26.119Z,101660.06
2022-11-03T10:54:31.898Z,101663.03
2022-11-03T10:57:37.939Z,101666.00
2022-11-03T11:00:43.574Z,101640.59
2022-11-03T11:03:49.998Z,101632.25
2022-11-03T11:06:56.017Z,101628.13
2022-11-03T11:10:19.791Z,101622.53
2022-11-03T11:13:27.893Z,101625.28
2022-11-03T11:16:57.573Z,101627.00
2022-11-03T11:20:33.582Z,101630.53
2022-11-03T11:23:39.350Z,101618.06
2022-11-03T11:26:48.211Z,101605.78
2022-11-03T11:29:53.886Z,101602.25
2022-11-03T11:33:15.022Z,101594.44
2022-11-03T11:36:23.808Z,101584.59
2022-11-03T11:39:31.431Z,101585.50
2022-11-03T11:43:03.014Z,101590.84
2022-11-03T11:46:24.038Z,101587.44
2022-11-03T11:49:29.518Z,101585.34
2022-11-03T11:52:59.658Z,101581.38
2022-11-03T11:56:05.848Z,101575.09
2022-11-03T11:59:25.088Z,101578.78
2022-11-03T12:02:31.453Z,101561.50
2022-11-03T12:05:37.364Z,101562.97
2022-11-03T12:08:44.381Z,101555.16
2022-11-03T12:11:53.854Z,101551.63
2022-11-03T12:15:00.965Z,101542.53
2022-11-03T12:18:36.548Z,101545.22
2022-11-03T12:21:49.895Z,101541.91
2022-11-03T12:25:01.052Z,101538.47
2022-11-03T12:28:06.814Z,101540.50
2022-11-03T12:31:12.879Z,101524.66
2022-11-03T12:34:18.636Z,101529.78
2022-11-03T12:37:24.448Z,101530.25
2022-11-03T12:40:29.903Z,101522.91
2022-11-03T12:43:35.440Z,101514.59
2022-11-03T12:46:40.945Z,101507.59
2022-11-03T12:49:46.739Z,101508.91
2022-11-03T12:52:52.277Z,101492.41
2022-11-03T12:55:58.343Z,101485.91
2022-11-03T12:59:04.383Z,101492.59
2022-11-03T13:02:11.866Z,101475.88
2022-11-03T13:05:17.578Z,101475.34
2022-11-03T13:08:23.112Z,101458.88
2022-11-03T13:11:47.178Z,101448.94
2022-11-03T13:14:52.492Z,101447.53
2022-11-03T13:18:14.255Z,101436.78
2022-11-03T13:21:21.090Z,101434.09
2022-11-03T13:24:26.733Z,101445.91
2022-11-03T13:27:32.615Z,101438.13
2022-11-03T13:30:37.856Z,101423.88
2022-11-03T13:33:43.324Z,101419.09
2022-11-03T13:36:48.582Z,101420.75
2022-11-03T13:39:54.068Z,101415.19
2022-11-03T13:42:59.213Z,101394.81
2022-11-03T13:46:05.530Z,101385.94
2022-11-03T13:52:37.470Z,101376.78
2022-11-03T13:55:43.228Z,101377.84
2022-11-03T14:05:42.163Z,101361.44
2022-11-03T14:08:47.402Z,101354.47
2022-11-03T14:12:11.491Z,101358.78
2022-11-03T14:15:17.088Z,101360.09
2022-11-03T14:18:22.536Z,101360.91
2022-11-03T14:21:28.506Z,101355.00
2022-11-03T14:24:33.933Z,101358.16
2022-11-03T14:27:39.252Z,101357.63
2022-11-03T14:30:44.363Z,101350.59
2022-11-03T14:33:50.164Z,101342.75
2022-11-03T14:36:55.873Z,101339.75
2022-11-03T14:40:01.580Z,101331.44
2022-11-03T14:43:07.344Z,101327.66
2022-11-03T14:46:13.309Z,101333.06
2022-11-03T14:49:19.290Z,101326.56
2022-11-03T14:52:24.752Z,101322.25
2022-11-03T14:55:30.377Z,101320.88
2022-11-03T14:58:35.960Z,101332.47
2022-11-03T15:01:41.403Z,101334.63
2022-11-03T15:04:47.357Z,101323.56
2022-11-03T15:07:52.597Z,101311.97
2022-11-03T15:10:58.291Z,101307.63
2022-11-03T15:14:04.347Z,101304.91
2022-11-03T15:17:09.846Z,101300.53
2022-11-03T15:20:15.198Z,101300.25
2022-11-03T15:26:47.042Z,101297.28
2022-11-03T15:29:52.632Z,101305.91
2022-11-03T15:32:58.236Z,101310.22
2022-11-03T15:36:04.929Z,101301.81
2022-11-03T15:39:10.655Z,101296.13
2022-11-03T15:42:15.988Z,101295.84
2022-11-03T15:45:21.687Z,101282.06
2022-11-03T15:48:32.052Z,101280.19
2022-11-03T15:51:40.088Z,101269.09
2022-11-03T15:54:45.494Z,101271.50
2022-11-03T15:57:51.327Z,101270.13
2022-11-03T16:00:57.163Z,101266.84
2022-11-03T16:04:02.882Z,101266.84
2022-11-03T16:07:08.881Z,101264.94
2022-11-03T16:10:15.523Z,101263.59
2022-11-03T16:13:20.965Z,101261.13
2022-11-03T16:16:26.585Z,101260.34
2022-11-03T16:19:32.220Z,101248.22
2022-11-03T16:22:37.781Z,101237.41
2022-11-03T16:25:43.338Z,101230.66
2022-11-03T16:28:48.687Z,101236.59
2022-11-03T16:31:54.460Z,101226.88
2022-11-03T16:34:59.848Z,101222.81
2022-11-03T16:38:06.732Z,101224.94
2022-11-03T16:41:13.483Z,101217.63
2022-11-03T16:44:18.739Z,101209.25
2022-11-03T16:47:27.309Z,101204.16
2022-11-03T16:50:33.477Z,101198.78
2022-11-03T16:53:38.544Z,101189.59
2022-11-03T16:56:44.717Z,101182.53
2022-11-03T16:59:50.157Z,101176.91
2022-11-03T17:02:55.541Z,101176.91
2022-11-03T17:06:01.511Z,101168.47
2022-11-03T17:09:07.038Z,101170.13
2022-11-03T17:12:12.992Z,101158.28
2022-11-03T17:15:18.911Z,101156.34
2022-11-03T17:18:24.379Z,101163.09
2022-11-03T17:21:30.199Z,101165.53
2022-11-03T17:24:35.988Z,101160.63
2022-11-03T17:28:03.911Z,101164.63
2022-11-03T17:31:09.402Z,101166.22
2022-11-03T17:34:23.096Z,101156.53
2022-11-03T17:37:28.754Z,101157.06
2022-11-03T17:40:35.054Z,101158.38
2022-11-03T17:43:41.621Z,101154.91
2022-11-03T17:46:46.974Z,101151.28
2022-11-03T17:49:52.631Z,101145.16
2022-11-03T17:52:58.276Z,101153.72
2022-11-03T17:56:28.906Z,101147.28
2022-11-03T17:59:30.132Z,101138.44
2022-11-03T18:02:38.331Z,101124.91
2022-11-03T18:05:45.286Z,101119.28
2022-11-03T18:08:50.748Z,101119.03
2022-11-03T18:12:15.066Z,101109.38
2022-11-03T18:15:23.779Z,101103.94
2022-11-03T18:18:38.095Z,101109.59
2022-11-03T18:21:44.639Z,101099.00
2022-11-03T18:24:52.146Z,101102.78
2022-11-03T18:27:57.745Z,101099.03
2022-11-03T18:31:03.523Z,101095.47
2022-11-03T18:34:19.064Z,101084.72
2022-11-03T18:37:24.822Z,101083.34
2022-11-03T18:40:32.430Z,101085.84
2022-11-03T18:43:38.200Z,101097.09
2022-11-03T18:46:43.933Z,101090.09
2022-11-03T18:49:49.450Z,101082.34
2022-11-03T18:52:55.092Z,101077.50
2022-11-03T18:56:01.843Z,101071.53
2022-11-03T18:59:37.842Z,101059.34
2022-11-03T19:02:43.563Z,101054.78
2022-11-03T19:05:51.967Z,101056.13
2022-11-03T19:09:00.629Z,101049.41
2022-11-03T19:12:07.513Z,101042.97
2022-11-03T19:15:23.133Z,101042.34
2022-11-03T19:18:32.514Z,101044.56
2022-11-03T19:21:37.625Z,101044.53
2022-11-03T19:24:45.512Z,101033.53
2022-11-03T19:27:50.991Z,101026.75
2022-11-03T19:30:58.084Z,101025.47
2022-11-03T19:34:07.629Z,101031.66
2022-11-03T19:37:12.945Z,101024.06
2022-11-03T19:40:20.644Z,101017.63
2022-11-03T19:43:30.443Z,101008.94
2022-11-03T19:46:41.959Z,101001.34
2022-11-03T19:49:47.917Z,100983.72
2022-11-03T19:53:04.283Z,100972.56
2022-11-03T19:56:10.481Z,100958.63
2022-11-03T19:59:18.184Z,100953.53
2022-11-03T20:02:24.355Z,100940.06
2022-11-03T20:05:30.796Z,100935.19
2022-11-03T20:08:37.782Z,100933.34
2022-11-03T20:11:43.629Z,100926.38
2022-11-03T20:14:48.999Z,100930.94
2022-11-03T20:17:54.319Z,100930.41
2022-11-03T20:21:00.082Z,100920.47
2022-11-03T20:24:06.220Z,100908.41
2022-11-03T20:27:12.181Z,100903.78
2022-11-03T20:30:21.036Z,100901.41
2022-11-03T20:33:27.841Z,100892.25
2022-11-03T20:36:33.936Z,100894.09
2022-11-03T20:39:40.941Z,100884.97
2022-11-03T20:42:49.137Z,100878.03
2022-11-03T20:45:55.662Z,100879.41
2022-11-03T20:49:01.478Z,100869.13
2022-11-03T20:52:10.523Z,100870.72
2022-11-03T20:55:24.734Z,100864.28
2022-11-03T20:58:30.616Z,100856.53
2022-11-03T21:01:36.765Z,100846.88
2022-11-03T21:04:44.340Z,100823.78
2022-11-03T21:07:50.750Z,100818.94
2022-11-03T21:11:16.489Z,100826.16
2022-11-03T21:14:26.199Z,100829.16
2022-11-03T21:17:50.372Z,100824.03
2022-11-03T21:20:56.277Z,100807.41
2022-11-03T21:24:01.542Z,100804.72
2022-11-03T21:27:07.187Z,100799.34
2022-11-03T21:30:19.204Z,100793.97
2022-11-03T21:33:27.298Z,100784.59
2022-11-03T21:36:33.731Z,100766.34
2022-11-03T21:39:39.449Z,100752.09
2022-11-03T21:43:03.131Z,100744.03
2022-11-03T21:46:11.313Z,100727.94
2022-11-03T21:49:35.632Z,100708.88
2022-11-03T21:52:40.722Z,100698.09
2022-11-03T21:55:52.160Z,100693.84
2022-11-03T21:58:58.139Z,100679.06
2022-11-03T22:02:04.591Z,100682.00
2022-11-03T22:05:11.036Z,100680.69
2022-11-03T22:08:16.535Z,100675.31
2022-11-03T22:11:21.728Z,100674.00
2022-11-03T22:14:29.411Z,100666.72
2022-11-03T22:17:35.009Z,100673.41
2022-11-03T22:20:59.389Z,100674.78
2022-11-03T22:24:23.678Z,100664.06
2022-11-03T22:27:31.273Z,100658.16
2022-11-03T22:30:58.399Z,100639.91
2022-11-03T22:34:22.499Z,100623.78
2022-11-03T22:40:52.631Z,100618.41
2022-11-03T22:44:16.545Z,100602.59
2022-11-03T22:47:22.241Z,100595.03
2022-11-03T22:50:27.534Z,100600.41
2022-11-03T22:53:53.318Z,100586.44
2022-11-03T22:56:58.605Z,100582.97
2022-11-03T23:00:06.296Z,100571.72
2022-11-03T23:03:11.835Z,100563.38
2022-11-03T23:06:20.491Z,100555.31
2022-11-03T23:09:25.630Z,100536.81
2022-11-03T23:12:31.865Z,100529.00
2022-11-03T23:15:43.902Z,100506.72
2022-11-03T23:19:07.941Z,100507.53
2022-11-03T23:22:13.224Z,100500.03
2022-11-03T23:25:18.701Z,100491.69
2022-11-03T23:28:24.211Z,100493.06
2022-11-03T23:31:29.885Z,100475.88
2022-11-03T23:34:35.823Z,100468.13
2022-11-03T23:37:41.731Z,100454.16
2022-11-03T23:40:47.314Z,100436.94
2022-11-03T23:43:53.243Z,100428.66
2022-11-03T23:47:17.126Z,100417.38
2022-11-03T23:50:22.602Z,100408.53
2022-11-03T23:53:27.641Z,100415.50
2022-11-03T23:57:00.250Z,100412.28
